createdAt,value
2023-05-06T00:00:39.676Z,100042.03
2023-05-06T00:02:11.562Z,100032.25
2023-05-06T00:03:43.625Z,100035.78
2023-05-06T00:05:18.701Z,100040.63
2023-05-06T00:06:50.517Z,100045.13
2023-05-06T00:08:22.341Z,100038.88
2023-05-06T00:09:54.393Z,100037.16
2023-05-06T00:11:26.650Z,100029.22
2023-05-06T00:12:58.505Z,100037.31
2023-05-06T00:14:30.738Z,100043.69
2023-05-06T00:16:02.614Z,100037.72
2023-05-06T00:17:34.516Z,100036.00
2023-05-06T00:19:06.809Z,100033.31
2023-05-06T00:20:38.649Z,100030.88
2023-05-06T00:22:10.680Z,100035.44
2023-05-06T00:23:42.478Z,100040.00
2023-05-06T00:25:14.334Z,100032.00
2023-05-06T00:26:46.341Z,100032.00
2023-05-06T00:28:21.610Z,100036.56
2023-05-06T00:29:53.457Z,100038.25
2023-05-06T00:31:25.326Z,100040.84
2023-05-06T00:32:57.360Z,100035.44
2023-05-06T00:34:29.241Z,100036.16
2023-05-06T00:36:01.222Z,100018.97
2023-05-06T00:37:33.098Z,100026.06
2023-05-06T00:39:06.218Z,100023.25
2023-05-06T00:40:38.152Z,100007.88
2023-05-06T00:42:09.997Z,100009.59
2023-05-06T00:43:41.904Z,100001.47
2023-05-06T00:45:13.734Z,100000.47
2023-05-06T00:46:45.921Z,99995.09
2023-05-06T00:48:18.279Z,99995.09
2023-05-06T00:49:50.747Z,99980.72
2023-05-06T00:55:59.807Z,99978.19
2023-05-06T00:57:31.818Z,99977.47
2023-05-06T00:59:03.688Z,99973.06
2023-05-06T01:00:35.791Z,99975.78
2023-05-06T01:02:07.676Z,99971.38
2023-05-06T01:03:39.914Z,99974.06
2023-05-06T01:05:12.468Z,99984.00
2023-05-06T01:07:02.255Z,99978.03
2023-05-06T01:08:49.968Z,99978.03
2023-05-06T01:10:25.867Z,99979.75
2023-05-06T01:12:21.497Z,99980.03
2023-05-06T01:14:06.369Z,99978.19
2023-05-06T01:15:50.397Z,99980.88
2023-05-06T01:17:28.131Z,99980.03
2023-05-06T01:19:02.037Z,99989.97
2023-05-06T01:20:33.895Z,99989.09
2023-05-06T01:22:07.506Z,99990.09
2023-05-06T01:23:58.719Z,99982.28
2023-05-06T01:25:32.428Z,99991.09
2023-05-06T01:27:04.412Z,99992.06
2023-05-06T01:28:37.511Z,99996.63
2023-05-06T01:30:09.833Z,100003.03
2023-05-06T01:31:48.304Z,100003.88
2023-05-06T01:33:41.349Z,100005.84
2023-05-06T01:35:33.026Z,100003.16
2023-05-06T01:37:20.900Z,100002.44
2023-05-06T01:39:03.593Z,100006.16
2023-05-06T01:40:36.653Z,99991.66
2023-05-06T01:42:10.261Z,99992.78
2023-05-06T01:43:45.502Z,99990.25
2023-05-06T01:45:19.902Z,99991.22
2023-05-06T01:46:52.901Z,99990.50
2023-05-06T01:48:28.168Z,99990.50
2023-05-06T01:50:01.783Z,99991.63
2023-05-06T01:51:34.427Z,99987.38
2023-05-06T01:53:07.056Z,99977.69
2023-05-06T01:54:40.469Z,99979.41
2023-05-06T01:56:12.613Z,99977.69
2023-05-06T01:57:44.448Z,99978.53
2023-05-06T01:59:16.288Z,99983.94
2023-05-06T02:00:48.104Z,99968.63
2023-05-06T02:02:20.357Z,99968.63
2023-05-06T02:03:52.401Z,99968.47
2023-05-06T02:05:24.877Z,99971.16
2023-05-06T02:07:00.540Z,99962.94
2023-05-06T02:08:32.347Z,99966.50
2023-05-06T02:10:06.258Z,99957.41
2023-05-06T02:11:38.835Z,99958.25
2023-05-06T02:13:12.503Z,99959.09
2023-05-06T02:14:44.475Z,99961.78
2023-05-06T02:16:16.613Z,99965.38
2023-05-06T02:17:49.454Z,99965.38
2023-05-06T02:19:21.450Z,99958.13
2023-05-06T02:20:53.290Z,99960.66
2023-05-06T02:22:25.117Z,99965.94
2023-05-06T02:23:57.000Z,99963.25
2023-05-06T02:25:29.626Z,99951.28
2023-05-06T02:27:02.437Z,99940.50
2023-05-06T02:28:34.741Z,99954.88
2023-05-06T02:30:07.177Z,99946.78
2023-05-06T02:31:39.000Z,99943.91
2023-05-06T02:33:11.182Z,99946.63
2023-05-06T02:34:43.000Z,99948.47
2023-05-06T02:36:15.071Z,99945.63
2023-05-06T02:37:46.878Z,99943.06
2023-05-06T02:39:18.699Z,99942.78
2023-05-06T02:40:50.716Z,99934.81
2023-05-06T02:42:22.572Z,99943.75
2023-05-06T02:43:54.420Z,99935.66
2023-05-06T02:45:44.961Z,99935.66
2023-05-06T02:47:35.589Z,99942.78
2023-05-06T02:49:08.516Z,99941.94
2023-05-06T02:50:40.379Z,99947.34
2023-05-06T02:52:12.277Z,99953.59
2023-05-06T02:53:44.091Z,99950.88
2023-05-06T02:55:16.221Z,99948.03
2023-05-06T02:56:48.130Z,99944.50
2023-05-06T02:58:20.097Z,99947.06
2023-05-06T02:59:51.937Z,99950.47
2023-05-06T03:01:24.372Z,99946.78
2023-05-06T03:02:56.476Z,99952.03
2023-05-06T03:04:28.425Z,99950.06
2023-05-06T03:06:00.338Z,99942.81
2023-05-06T03:07:32.211Z,99943.50
2023-05-06T03:09:05.222Z,99945.06
2023-05-06T03:10:37.174Z,99945.06
2023-05-06T03:12:09.262Z,99943.94
2023-05-06T03:13:41.365Z,99944.66
2023-05-06T03:15:13.395Z,99939.09
2023-05-06T03:16:45.303Z,99943.41
2023-05-06T03:18:17.199Z,99947.69
2023-05-06T03:19:50.678Z,99944.69
2023-05-06T03:21:22.927Z,99946.38
2023-05-06T03:22:56.736Z,99938.13
2023-05-06T03:24:29.246Z,99945.09
2023-05-06T03:26:01.163Z,99934.16
2023-05-06T03:27:34.054Z,99943.81
2023-05-06T03:29:11.792Z,99943.69
2023-05-06T03:30:43.858Z,99940.81
2023-05-06T03:32:15.730Z,99944.25
2023-05-06T03:33:49.365Z,99942.28
2023-05-06T03:35:21.529Z,99944.81
2023-05-06T03:36:57.986Z,99943.81
2023-05-06T03:38:32.064Z,99942.69
2023-05-06T03:40:08.266Z,99946.22
2023-05-06T03:41:40.290Z,99944.25
2023-05-06T03:43:13.072Z,99946.78
2023-05-06T03:44:44.921Z,99943.09
2023-05-06T03:46:16.989Z,99942.94
2023-05-06T03:47:49.046Z,99940.13
2023-05-06T03:49:21.888Z,99932.88
2023-05-06T03:50:54.110Z,99938.09
2023-05-06T03:52:26.577Z,99948.78
2023-05-06T03:53:58.644Z,99939.69
2023-05-06T03:55:31.233Z,99941.25
2023-05-06T03:57:03.375Z,99939.53
2023-05-06T03:58:36.050Z,99943.78
2023-05-06T04:00:10.671Z,99943.66
2023-05-06T04:01:48.016Z,99937.25
2023-05-06T04:03:21.060Z,99944.38
2023-05-06T04:04:55.631Z,99942.34
2023-05-06T04:06:27.526Z,99939.66
2023-05-06T04:07:59.436Z,99946.75
2023-05-06T04:09:33.169Z,99940.38
2023-05-06T04:11:07.956Z,99942.91
2023-05-06T04:12:41.513Z,99948.31
2023-05-06T04:14:14.516Z,99957.16
2023-05-06T04:15:46.391Z,99958.00
2023-05-06T04:17:23.590Z,99957.00
2023-05-06T04:18:55.705Z,99964.13
2023-05-06T04:20:28.465Z,99960.41
2023-05-06T04:22:00.296Z,99970.22
2023-05-06T04:23:32.757Z,99968.22
2023-05-06T04:25:05.340Z,99973.47
2023-05-06T04:26:38.062Z,99973.34
2023-05-06T04:28:12.425Z,99961.53
2023-05-06T04:29:44.336Z,99971.22
2023-05-06T04:31:16.707Z,99972.78
2023-05-06T04:32:54.710Z,99974.47
2023-05-06T04:34:27.965Z,99977.88
2023-05-06T04:36:02.257Z,99974.34
2023-05-06T04:37:35.687Z,99978.56
2023-05-06T04:39:14.872Z,99986.41
2023-05-06T04:40:46.881Z,99987.97
2023-05-06T04:42:18.775Z,99987.13
2023-05-06T04:44:00.900Z,99978.00
2023-05-06T04:45:34.674Z,99982.81
2023-05-06T04:47:07.215Z,99980.13
2023-05-06T04:48:39.194Z,99987.09
2023-05-06T04:50:12.137Z,99979.81
2023-05-06T04:51:43.961Z,99972.44
2023-05-06T04:53:16.161Z,99976.81
2023-05-06T04:54:47.997Z,99978.53
2023-05-06T04:56:19.909Z,99984.66
2023-05-06T04:57:53.057Z,99983.50
2023-05-06T04:59:25.048Z,99985.06
2023-05-06T05:00:58.200Z,99975.13
2023-05-06T05:02:30.157Z,99989.22
2023-05-06T05:04:02.277Z,99985.38
2023-05-06T05:05:34.918Z,99995.00
2023-05-06T05:07:07.740Z,99994.72
2023-05-06T05:08:39.864Z,99995.44
2023-05-06T05:10:12.573Z,99997.97
2023-05-06T05:11:44.634Z,99989.72
2023-05-06T05:13:16.519Z,99993.00
2023-05-06T05:14:49.791Z,99978.31
2023-05-06T05:16:22.336Z,99989.81
2023-05-06T05:17:54.514Z,99996.97
2023-05-06T05:19:27.885Z,99994.09
2023-05-06T05:21:00.357Z,99995.78
2023-05-06T05:22:32.769Z,99995.66
2023-05-06T05:24:05.514Z,100000.78
2023-05-06T05:25:37.430Z,100004.31
2023-05-06T05:27:09.261Z,99998.75
2023-05-06T05:28:41.373Z,100005.88
2023-05-06T05:30:13.574Z,100007.56
2023-05-06T05:31:46.636Z,100003.00
2023-05-06T05:33:18.724Z,100011.00
2023-05-06T05:34:51.153Z,100011.69
2023-05-06T05:36:23.826Z,100015.25
2023-05-06T05:37:59.196Z,100012.41
2023-05-06T05:39:31.121Z,100005.13
2023-05-06T05:41:03.524Z,100007.69
2023-05-06T05:42:35.432Z,100010.41
2023-05-06T05:44:12.398Z,100005.84
2023-05-06T05:45:45.034Z,100011.09
2023-05-06T05:47:17.045Z,100014.81
2023-05-06T05:48:49.461Z,100020.94
2023-05-06T05:50:22.862Z,100018.22
2023-05-06T05:51:56.269Z,100027.31
2023-05-06T05:53:28.446Z,100025.34
2023-05-06T05:55:00.769Z,100024.47
2023-05-06T05:56:32.646Z,100016.38
2023-05-06T05:58:04.599Z,100024.31
2023-05-06T05:59:37.508Z,100024.31
2023-05-06T06:01:10.468Z,100020.63
2023-05-06T06:02:42.570Z,100022.16
2023-05-06T06:04:14.665Z,100016.75
2023-05-06T06:05:46.905Z,100023.72
2023-05-06T06:07:19.249Z,100020.00
2023-05-06T06:08:51.908Z,100024.28
2023-05-06T06:10:23.892Z,100023.84
2023-05-06T06:11:55.782Z,100026.38
2023-05-06T06:13:29.024Z,100019.53
2023-05-06T06:15:01.246Z,100023.47
2023-05-06T06:16:34.084Z,100032.84
2023-05-06T06:18:09.010Z,100030.53
2023-05-06T06:19:43.399Z,100024.66
2023-05-06T06:21:15.260Z,100027.63
2023-05-06T06:22:47.427Z,100029.03
2023-05-06T06:24:19.557Z,100027.56
2023-05-06T06:25:51.385Z,100033.22
2023-05-06T06:27:23.705Z,100030.91
2023-05-06T06:28:55.994Z,100037.72
2023-05-06T06:30:28.041Z,100031.13
2023-05-06T06:32:00.042Z,100032.38
2023-05-06T06:33:31.957Z,100033.91
2023-05-06T06:35:04.016Z,100037.19
2023-05-06T06:36:35.978Z,100028.75
2023-05-06T06:38:07.804Z,100029.13
2023-05-06T06:39:39.646Z,100035.91
2023-05-06T06:41:11.650Z,100034.63
2023-05-06T06:42:43.486Z,100041.44
2023-05-06T06:44:37.219Z,100045.06
2023-05-06T06:46:09.124Z,100041.03
2023-05-06T06:47:41.487Z,100038.53
2023-05-06T06:49:13.349Z,100037.06
2023-05-06T06:50:45.375Z,100038.81
2023-05-06T06:52:17.176Z,100037.34
2023-05-06T06:53:51.509Z,100042.66
2023-05-06T06:55:23.404Z,100041.84
2023-05-06T06:56:56.498Z,100048.06
2023-05-06T06:58:28.568Z,100045.38
2023-05-06T07:00:01.043Z,100049.84
2023-05-06T07:01:33.197Z,100056.63
2023-05-06T07:03:05.200Z,100055.28
2023-05-06T07:04:37.139Z,100060.41
2023-05-06T07:06:09.051Z,100062.13
2023-05-06T07:07:40.925Z,100064.00
2023-05-06T07:09:13.512Z,100062.13
2023-05-06T07:10:45.334Z,100062.25
2023-05-06T07:12:17.385Z,100066.84
2023-05-06T07:13:49.175Z,100056.16
2023-05-06T07:15:21.060Z,100062.44
2023-05-06T07:16:53.099Z,100060.91
2023-05-06T07:18:24.996Z,100071.94
2023-05-06T07:19:56.937Z,100069.53
2023-05-06T07:21:28.790Z,100068.00
2023-05-06T07:23:01.261Z,100071.16
2023-05-06T07:24:33.141Z,100070.66
2023-05-06T07:26:05.055Z,100068.09
2023-05-06T07:27:37.235Z,100073.31
2023-05-06T07:29:09.073Z,100077.38
2023-05-06T07:30:40.917Z,100082.25
2023-05-06T07:32:12.969Z,100068.31
2023-05-06T07:33:44.759Z,100076.06
2023-05-06T07:35:16.744Z,100082.31
2023-05-06T07:36:48.764Z,100087.22
2023-05-06T07:38:23.904Z,100082.41
2023-05-06T07:39:57.040Z,100087.44
2023-05-06T07:41:28.909Z,100086.03
2023-05-06T07:43:00.781Z,100089.22
2023-05-06T07:44:32.667Z,100078.50
2023-05-06T07:46:04.946Z,100087.66
2023-05-06T07:47:37.048Z,100084.97
2023-05-06T07:49:08.955Z,100089.69
2023-05-06T07:50:40.818Z,100082.38
2023-05-06T07:52:12.696Z,100096.97
2023-05-06T07:53:44.619Z,100097.81
2023-05-06T07:55:17.148Z,100097.81
2023-05-06T07:56:48.989Z,100097.13
2023-05-06T07:58:21.034Z,100098.13
2023-05-06T07:59:53.364Z,100110.84
2023-05-06T08:01:25.706Z,100099.84
2023-05-06T08:02:57.651Z,100117.09
2023-05-06T08:04:29.698Z,100118.13
2023-05-06T08:06:01.608Z,100116.25
2023-05-06T08:07:33.623Z,100116.97
2023-05-06T08:09:05.593Z,100119.19
2023-05-06T08:10:37.462Z,100112.31
2023-05-06T08:12:10.039Z,100118.31
2023-05-06T08:13:41.899Z,100116.13
2023-05-06T08:17:28.605Z,100116.88
2023-05-06T08:19:00.449Z,100123.16
2023-05-06T08:20:32.283Z,100126.56
2023-05-06T08:22:04.176Z,100131.28
2023-05-06T08:23:36.056Z,100135.88
2023-05-06T08:25:08.599Z,100140.47
2023-05-06T08:26:41.315Z,100136.03
2023-05-06T08:28:13.188Z,100136.03
2023-05-06T08:29:45.087Z,100131.47
2023-05-06T08:31:17.112Z,100136.72
2023-05-06T08:32:49.343Z,100130.31
2023-05-06T08:34:21.502Z,100139.13
2023-05-06T08:35:53.364Z,100139.13
2023-05-06T08:37:25.247Z,100145.56
2023-05-06T08:38:57.168Z,100145.25
2023-05-06T08:40:32.810Z,100143.38
2023-05-06T08:42:05.769Z,100150.69
2023-05-06T08:43:44.664Z,100148.81
2023-05-06T08:45:19.943Z,100149.53
2023-05-06T08:46:51.909Z,100145.78
2023-05-06T08:48:23.777Z,100162.78
2023-05-06T08:49:55.724Z,100157.50
2023-05-06T08:51:29.692Z,100159.53
2023-05-06T08:53:01.998Z,100168.66
2023-05-06T08:54:36.054Z,100166.13
2023-05-06T08:56:08.971Z,100167.13
2023-05-06T08:57:42.621Z,100165.41
2023-05-06T08:59:14.565Z,100161.16
2023-05-06T09:00:47.063Z,100172.16
2023-05-06T09:02:18.923Z,100171.31
2023-05-06T09:03:51.637Z,100174.19
2023-05-06T09:05:23.502Z,100164.81
2023-05-06T09:06:58.043Z,100174.78
2023-05-06T09:08:29.959Z,100177.84
2023-05-06T09:10:06.739Z,100169.97
2023-05-06T09:11:39.137Z,100168.25
2023-05-06T09:13:14.233Z,100175.53
2023-05-06T09:14:50.412Z,100178.56
2023-05-06T09:16:29.665Z,100173.44
2023-05-06T09:18:01.550Z,100179.72
2023-05-06T09:19:38.249Z,100174.59
2023-05-06T09:21:10.071Z,100176.63
2023-05-06T09:22:41.916Z,100179.50
2023-05-06T09:24:15.475Z,100184.91
2023-05-06T09:25:47.880Z,100189.78
2023-05-06T09:27:21.832Z,100185.53
2023-05-06T09:29:02.629Z,100185.81
2023-05-06T09:30:39.323Z,100196.69
2023-05-06T09:32:14.707Z,100191.84
2023-05-06T09:33:46.542Z,100186.41
2023-05-06T09:35:18.331Z,100188.63
2023-05-06T09:36:52.609Z,100184.47
2023-05-06T09:38:24.842Z,100175.41
2023-05-06T09:39:58.780Z,100179.06
2023-05-06T09:41:31.313Z,100177.81
2023-05-06T09:43:04.234Z,100184.84
2023-05-06T09:44:36.150Z,100171.59
2023-05-06T09:46:09.097Z,100180.00
2023-05-06T09:47:41.852Z,100173.81
2023-05-06T09:49:15.332Z,100182.28
2023-05-06T09:50:47.620Z,100178.09
2023-05-06T09:52:20.998Z,100190.88
2023-05-06T09:53:52.841Z,100187.34
2023-05-06T09:55:27.341Z,100191.31
2023-05-06T09:57:01.022Z,100186.72
2023-05-06T09:58:34.825Z,100183.28
2023-05-06T10:00:09.512Z,100185.31
2023-05-06T10:01:47.320Z,100195.66
2023-05-06T10:03:20.636Z,100194.28
2023-05-06T10:04:56.149Z,100196.31
2023-05-06T10:06:28.317Z,100193.94
2023-05-06T10:08:01.561Z,100196.47
2023-05-06T10:09:33.818Z,100193.06
2023-05-06T10:11:06.467Z,100192.06
2023-05-06T10:12:38.577Z,100199.53
2023-05-06T10:14:11.302Z,100189.66
2023-05-06T10:15:46.681Z,100188.66
2023-05-06T10:17:19.034Z,100199.53
2023-05-06T10:18:55.689Z,100198.81
2023-05-06T10:20:31.576Z,100197.44
2023-05-06T10:22:15.346Z,100201.50
2023-05-06T10:24:02.340Z,100200.13
2023-05-06T10:25:38.591Z,100203.16
2023-05-06T10:27:12.377Z,100195.34
2023-05-06T10:28:47.163Z,100197.31
2023-05-06T10:30:19.414Z,100202.94
2023-05-06T10:31:55.237Z,100204.09
2023-05-06T10:33:28.740Z,100206.94
2023-05-06T10:35:09.948Z,100204.19
2023-05-06T10:36:44.066Z,100204.34
2023-05-06T10:38:30.384Z,100205.31
2023-05-06T10:40:04.883Z,100208.47
2023-05-06T10:41:37.484Z,100205.22
2023-05-06T10:43:29.347Z,100207.91
2023-05-06T10:45:04.185Z,100205.84
2023-05-06T10:46:58.912Z,100203.78
2023-05-06T10:48:31.775Z,100208.34
2023-05-06T10:50:20.324Z,100209.16
2023-05-06T10:52:17.175Z,100197.59
2023-05-06T10:54:25.089Z,100211.47
2023-05-06T10:56:09.158Z,100205.50
2023-05-06T10:57:41.524Z,100214.34
2023-05-06T10:59:13.355Z,100209.06
2023-05-06T11:00:55.623Z,100218.53
2023-05-06T11:02:30.365Z,100212.25
2023-05-06T11:04:07.819Z,100220.69
2023-05-06T11:05:52.572Z,100214.75
2023-05-06T11:07:24.850Z,100216.44
2023-05-06T11:08:58.441Z,100211.00
2023-05-06T11:10:34.138Z,100214.56
2023-05-06T11:12:07.013Z,100210.16
2023-05-06T11:13:42.250Z,100214.75
2023-05-06T11:15:40.726Z,100217.59
2023-05-06T11:17:33.871Z,100223.56
2023-05-06T11:19:05.956Z,100219.38
2023-05-06T11:20:37.788Z,100226.19
2023-05-06T11:22:29.526Z,100218.63
2023-05-06T11:24:01.270Z,100217.66
2023-05-06T11:25:43.015Z,100216.91
2023-05-06T11:27:17.272Z,100213.25
2023-05-06T11:28:50.351Z,100220.09
2023-05-06T11:30:22.173Z,100216.59
2023-05-06T11:31:54.344Z,100217.34
2023-05-06T11:33:32.166Z,100225.44
2023-05-06T11:35:05.306Z,100235.16
2023-05-06T11:36:45.461Z,100230.31
2023-05-06T11:38:17.280Z,100227.16
2023-05-06T11:39:49.339Z,100230.44
2023-05-06T11:41:23.094Z,100226.41
2023-05-06T11:42:55.055Z,100227.63
2023-05-06T11:44:29.667Z,100231.97
2023-05-06T11:46:01.585Z,100224.53
2023-05-06T11:47:33.444Z,100228.28
2023-05-06T11:49:05.543Z,100229.50
2023-05-06T11:50:37.366Z,100237.47
2023-05-06T11:52:10.939Z,100231.69
2023-05-06T11:53:43.094Z,100239.53
2023-05-06T11:55:14.927Z,100240.72
2023-05-06T11:56:49.195Z,100243.06
2023-05-06T11:58:26.764Z,100241.31
2023-05-06T11:59:58.706Z,100243.72
2023-05-06T12:01:30.488Z,100247.22
2023-05-06T12:03:04.073Z,100247.53
2023-05-06T12:04:41.766Z,100248.88
2023-05-06T12:06:13.638Z,100257.22
2023-05-06T12:07:45.646Z,100262.66
2023-05-06T12:09:17.736Z,100258.78
2023-05-06T12:10:51.803Z,100256.56
2023-05-06T12:12:24.697Z,100258.25
2023-05-06T12:13:56.966Z,100258.81
2023-05-06T12:15:29.858Z,100260.19
2023-05-06T12:17:01.746Z,100254.25
2023-05-06T12:18:33.720Z,100250.00
2023-05-06T12:20:06.711Z,100252.91
2023-05-06T12:21:39.366Z,100262.16
2023-05-06T12:23:12.499Z,100260.97
2023-05-06T12:24:45.157Z,100264.72
2023-05-06T12:26:16.945Z,100265.75
2023-05-06T12:27:48.816Z,100269.34
2023-05-06T12:29:20.702Z,100264.78
2023-05-06T12:30:52.967Z,100263.59
2023-05-06T12:32:24.838Z,100269.72
2023-05-06T12:33:58.107Z,100261.22
2023-05-06T12:35:32.361Z,100262.56
2023-05-06T12:37:05.118Z,100253.00
2023-05-06T12:38:36.936Z,100264.22
2023-05-06T12:40:17.288Z,100257.59
2023-05-06T12:41:49.087Z,100252.63
2023-05-06T12:43:29.703Z,100257.53
2023-05-06T12:45:13.912Z,100248.78
2023-05-06T12:46:52.964Z,100254.84
2023-05-06T12:48:24.790Z,100255.97
2023-05-06T12:50:01.224Z,100257.09
2023-05-06T12:51:33.215Z,100256.88
2023-05-06T12:53:06.747Z,100259.56
2023-05-06T12:54:38.712Z,100260.91
2023-05-06T12:56:10.576Z,100263.06
2023-05-06T12:57:42.378Z,100266.47
2023-05-06T12:59:14.173Z,100259.31
2023-05-06T13:00:46.211Z,100274.66
2023-05-06T13:02:18.410Z,100266.84
2023-05-06T13:03:51.268Z,100262.78
2023-05-06T13:05:23.359Z,100274.91
2023-05-06T13:06:55.989Z,100265.19
2023-05-06T13:08:28.518Z,100269.31
2023-05-06T13:10:00.338Z,100259.78
2023-05-06T13:11:32.268Z,100267.66
2023-05-06T13:13:04.180Z,100262.22
2023-05-06T13:14:38.460Z,100259.38
2023-05-06T13:16:12.095Z,100260.56
2023-05-06T13:17:44.006Z,100257.53
2023-05-06T13:20:52.012Z,100268.13
2023-05-06T13:22:24.565Z,100266.25
2023-05-06T13:23:56.378Z,100265.91
2023-05-06T13:25:28.199Z,100268.09
2023-05-06T13:27:01.350Z,100265.84
2023-05-06T13:28:35.576Z,100262.22
2023-05-06T13:30:08.980Z,100276.22
2023-05-06T13:31:40.969Z,100274.66
2023-05-06T13:33:12.756Z,100286.75
2023-05-06T13:34:44.593Z,100280.06
2023-05-06T13:36:16.407Z,100280.56
2023-05-06T13:37:48.225Z,100288.06
2023-05-06T13:39:21.063Z,100291.34
2023-05-06T13:40:54.037Z,100288.13
2023-05-06T13:42:25.839Z,100291.59
2023-05-06T13:43:57.640Z,100290.53
2023-05-06T13:45:29.520Z,100282.91
2023-05-06T13:47:01.407Z,100299.31
2023-05-06T13:48:33.241Z,100292.22
2023-05-06T13:50:06.002Z,100291.53
2023-05-06T13:51:37.921Z,100298.09
2023-05-06T13:53:11.074Z,100291.28
2023-05-06T13:54:42.943Z,100290.16
2023-05-06T13:56:14.736Z,100292.16
2023-05-06T13:57:46.564Z,100289.97
2023-05-06T13:59:18.353Z,100289.81
2023-05-06T14:00:50.764Z,100292.88
2023-05-06T14:02:22.592Z,100291.84
2023-05-06T14:03:54.380Z,100297.28
2023-05-06T14:05:26.718Z,100294.22
2023-05-06T14:06:59.379Z,100291.34
2023-05-06T14:08:32.903Z,100286.53
2023-05-06T14:10:05.140Z,100286.19
2023-05-06T14:11:36.976Z,100290.81
2023-05-06T14:13:08.771Z,100292.34
2023-05-06T14:14:40.620Z,100288.59
2023-05-06T14:16:12.584Z,100290.47
2023-05-06T14:17:44.411Z,100291.84
2023-05-06T14:19:16.249Z,100288.13
2023-05-06T14:20:48.015Z,100285.53
2023-05-06T14:22:19.816Z,100291.00
2023-05-06T14:23:51.607Z,100288.13
2023-05-06T14:25:27.048Z,100284.34
2023-05-06T14:26:59.053Z,100287.59
2023-05-06T14:28:31.299Z,100289.13
2023-05-06T14:30:08.512Z,100291.16
2023-05-06T14:31:41.415Z,100292.34
2023-05-06T14:33:13.254Z,100294.56
2023-05-06T14:34:45.078Z,100293.72
2023-05-06T14:36:20.204Z,100289.31
2023-05-06T14:37:52.138Z,100295.59
2023-05-06T14:39:23.961Z,100296.63
2023-05-06T14:40:56.700Z,100295.28
2023-05-06T14:42:30.769Z,100301.91
2023-05-06T14:44:02.589Z,100301.06
2023-05-06T14:45:34.679Z,100299.38
2023-05-06T14:47:06.497Z,100288.97
2023-05-06T14:48:38.295Z,100297.47
2023-05-06T14:50:11.226Z,100309.06
2023-05-06T14:51:43.676Z,100310.28
2023-05-06T14:53:15.497Z,100306.00
2023-05-06T14:54:47.997Z,100317.75
2023-05-06T14:56:19.833Z,100317.03
2023-05-06T14:57:51.740Z,100316.34
2023-05-06T14:59:23.584Z,100326.34
2023-05-06T15:00:55.494Z,100318.50
2023-05-06T15:02:27.419Z,100316.25
2023-05-06T15:03:59.274Z,100313.81
2023-05-06T15:05:31.598Z,100316.53
2023-05-06T15:07:04.102Z,100318.00
2023-05-06T15:08:35.898Z,100313.03
2023-05-06T15:10:08.098Z,100314.25
2023-05-06T15:11:39.895Z,100316.41
2023-05-06T15:13:11.832Z,100310.28
2023-05-06T15:14:43.857Z,100316.88
2023-05-06T15:16:15.728Z,100311.09
2023-05-06T15:17:47.584Z,100311.75
2023-05-06T15:19:19.404Z,100318.66
2023-05-06T15:20:52.586Z,100320.16
2023-05-06T15:22:24.379Z,100318.97
2023-05-06T15:23:57.016Z,100325.03
2023-05-06T15:25:35.560Z,100318.03
2023-05-06T15:27:08.259Z,100308.66
2023-05-06T15:28:40.109Z,100313.41
2023-05-06T15:30:12.161Z,100313.56
2023-05-06T15:31:44.999Z,100313.72
2023-05-06T15:33:16.929Z,100313.88
2023-05-06T15:34:48.754Z,100315.88
2023-05-06T15:36:20.590Z,100316.22
2023-05-06T15:37:58.857Z,100324.22
2023-05-06T15:39:37.105Z,100323.19
2023-05-06T15:41:09.721Z,100311.88
2023-05-06T15:42:41.577Z,100318.34
2023-05-06T15:45:47.783Z,100321.72
2023-05-06T15:47:19.792Z,100317.00
2023-05-06T15:49:00.107Z,100325.53
2023-05-06T15:50:43.456Z,100322.84
2023-05-06T15:52:15.311Z,100319.13
2023-05-06T15:53:47.376Z,100329.00
2023-05-06T15:55:19.572Z,100326.41
2023-05-06T15:56:51.448Z,100330.34
2023-05-06T15:58:23.945Z,100322.81
2023-05-06T15:59:55.827Z,100320.56
2023-05-06T16:01:54.046Z,100318.34
2023-05-06T16:03:19.443Z,100316.66
2023-05-06T16:04:51.594Z,100323.25
2023-05-06T16:06:23.482Z,100322.72
2023-05-06T16:07:56.109Z,100336.31
2023-05-06T16:09:27.952Z,100329.66
2023-05-06T16:10:59.947Z,100333.53
2023-05-06T16:12:32.908Z,100334.72
2023-05-06T16:14:04.722Z,100328.41
2023-05-06T16:15:36.535Z,100333.19
2023-05-06T16:17:08.439Z,100329.44
2023-05-06T16:18:40.286Z,100328.06
2023-05-06T16:20:13.028Z,100330.25
2023-05-06T16:21:45.052Z,100335.16
2023-05-06T16:23:16.869Z,100336.78
2023-05-06T16:24:48.692Z,100336.56
2023-05-06T16:26:20.499Z,100340.06
2023-05-06T16:27:52.398Z,100345.28
2023-05-06T16:29:24.280Z,100342.47
2023-05-06T16:30:56.143Z,100338.84
2023-05-06T16:32:28.003Z,100343.16
2023-05-06T16:33:59.904Z,100342.94
2023-05-06T16:35:32.604Z,100345.41
2023-05-06T16:37:05.542Z,100346.06
2023-05-06T16:38:37.546Z,100340.34
2023-05-06T16:40:10.741Z,100340.13
2023-05-06T16:41:42.746Z,100337.16
2023-05-06T16:43:14.542Z,100338.66
2023-05-06T16:44:46.675Z,100340.94
2023-05-06T16:46:18.666Z,100344.28
2023-05-06T16:47:50.729Z,100342.16
2023-05-06T16:49:22.611Z,100347.22
2023-05-06T16:50:54.412Z,100348.78
2023-05-06T16:52:26.543Z,100344.81
2023-05-06T16:55:30.266Z,100343.13
2023-05-06T16:57:03.584Z,100346.47
2023-05-06T16:58:35.848Z,100347.03
2023-05-06T17:00:08.624Z,100342.22
2023-05-06T17:01:40.644Z,100344.50
2023-05-06T17:03:12.592Z,100344.25
2023-05-06T17:04:44.568Z,100344.81
2023-05-06T17:06:16.389Z,100345.28
2023-05-06T17:07:48.441Z,100342.31
2023-05-06T17:09:21.539Z,100345.44
2023-05-06T17:10:53.337Z,100336.75
2023-05-06T17:12:26.966Z,100348.03
2023-05-06T17:13:58.830Z,100344.88
2023-05-06T17:15:31.310Z,100348.88
2023-05-06T17:17:05.516Z,100347.28
2023-05-06T17:18:37.574Z,100347.75
2023-05-06T17:20:09.831Z,100348.03
2023-05-06T17:21:41.982Z,100352.88
2023-05-06T17:23:13.947Z,100360.44
2023-05-06T17:24:46.012Z,100359.03
2023-05-06T17:26:18.602Z,100363.84
2023-05-06T17:27:50.384Z,100355.31
2023-05-06T17:29:22.367Z,100353.00
2023-05-06T17:30:54.451Z,100356.16
2023-05-06T17:32:26.425Z,100366.41
2023-05-06T17:33:58.234Z,100360.28
2023-05-06T17:35:30.025Z,100360.56
2023-05-06T17:37:03.848Z,100359.88
2023-05-06T17:38:35.616Z,100361.13
2023-05-06T17:40:08.139Z,100369.53
2023-05-06T17:41:40.144Z,100361.72
2023-05-06T17:43:11.986Z,100362.97
2023-05-06T17:44:43.860Z,100363.13
2023-05-06T17:46:17.564Z,100367.81
2023-05-06T17:47:51.327Z,100368.94
2023-05-06T17:49:23.469Z,100367.22
2023-05-06T17:51:01.038Z,100363.09
2023-05-06T17:52:32.967Z,100366.09
2023-05-06T17:54:04.826Z,100370.06
2023-05-06T17:55:36.628Z,100367.63
2023-05-06T17:57:08.441Z,100374.28
2023-05-06T17:58:40.269Z,100375.69
2023-05-06T18:00:12.669Z,100377.09
2023-05-06T18:01:46.686Z,100381.94
2023-05-06T18:03:25.599Z,100382.31
2023-05-06T18:04:57.681Z,100380.19
2023-05-06T18:06:29.702Z,100376.88